sensor_id;sensor_type;location;lat;lon;timestamp;temperature;humidity
46720;DHT22;32452;51.382;-0.002;2023-05-10T00:02:08;12.30;99.90
46720;DHT22;32452;51.382;-0.002;2023-05-10T00:04:53;12.30;99.90
46720;DHT22;32452;51.382;-0.002;2023-05-10T00:07:39;12.20;99.90
46720;DHT22;32452;51.382;-0.002;2023-05-10T00:10:24;12.20;99.90
46720;DHT22;32452;51.382;-0.002;2023-05-10T00:13:09;12.20;99.90
46720;DHT22;32452;51.382;-0.002;2023-05-10T00:15:55;12.20;99.90
46720;DHT22;32452;51.382;-0.002;2023-05-10T00:18:41;12.20;99.90
46720;DHT22;32452;51.382;-0.002;2023-05-10T00:21:26;12.20;99.90
46720;DHT22;32452;51.382;-0.002;2023-05-10T00:24:13;12.20;99.90
46720;DHT22;32452;51.382;-0.002;2023-05-10T00:26:58;12.20;99.90
46720;DHT22;32452;51.382;-0.002;2023-05-10T00:29:46;12.20;99.90
46720;DHT22;32452;51.382;-0.002;2023-05-10T00:32:31;12.20;99.90
46720;DHT22;32452;51.382;-0.002;2023-05-10T00:35:17;12.20;99.90
46720;DHT22;32452;51.382;-0.002;2023-05-10T00:38:02;12.20;99.90
46720;DHT22;32452;51.382;-0.002;2023-05-10T00:40:48;12.20;99.90
46720;DHT22;32452;51.382;-0.002;2023-05-10T00:43:33;12.30;99.90
46720;DHT22;32452;51.382;-0.002;2023-05-10T00:46:19;12.30;99.90
46720;DHT22;32452;51.382;-0.002;2023-05-10T00:49:06;12.30;99.90
46720;DHT22;32452;51.382;-0.002;2023-05-10T00:51:51;12.30;99.90
46720;DHT22;32452;51.382;-0.002;2023-05-10T00:54:37;12.40;99.90
46720;DHT22;32452;51.382;-0.002;2023-05-10T00:57:22;12.40;99.90
46720;DHT22;32452;51.382;-0.002;2023-05-10T01:00:08;12.40;99.90
46720;DHT22;32452;51.382;-0.002;2023-05-10T01:02:54;12.40;99.90
46720;DHT22;32452;51.382;-0.002;2023-05-10T01:05:40;12.40;99.90
46720;DHT22;32452;51.382;-0.002;2023-05-10T01:08:26;12.40;99.90
46720;DHT22;32452;51.382;-0.002;2023-05-10T01:11:12;12.40;99.90
46720;DHT22;32452;51.382;-0.002;2023-05-10T01:13:58;12.40;99.90
46720;DHT22;32452;51.382;-0.002;2023-05-10T01:16:44;12.50;99.90
46720;DHT22;32452;51.382;-0.002;2023-05-10T01:19:31;12.50;99.90
46720;DHT22;32452;51.382;-0.002;2023-05-10T01:34:30;12.50;99.90
46720;DHT22;32452;51.382;-0.002;2023-05-10T01:37:21;12.50;99.90
46720;DHT22;32452;51.382;-0.002;2023-05-10T01:40:32;12.50;99.90
46720;DHT22;32452;51.382;-0.002;2023-05-10T01:43:28;12.50;99.90
46720;DHT22;32452;51.382;-0.002;2023-05-10T01:46:20;12.50;99.90
46720;DHT22;32452;51.382;-0.002;2023-05-10T01:49:17;12.50;99.90
46720;DHT22;32452;51.382;-0.002;2023-05-10T01:52:10;12.50;99.90
46720;DHT22;32452;51.382;-0.002;2023-05-10T01:55:06;12.50;99.90
46720;DHT22;32452;51.382;-0.002;2023-05-10T01:58:29;12.50;99.90
46720;DHT22;32452;51.382;-0.002;2023-05-10T02:01:07;12.50;99.90
46720;DHT22;32452;51.382;-0.002;2023-05-10T02:03:54;12.50;99.90
46720;DHT22;32452;51.382;-0.002;2023-05-10T02:06:42;12.50;99.90
46720;DHT22;32452;51.382;-0.002;2023-05-10T02:09:30;12.50;99.90
46720;DHT22;32452;51.382;-0.002;2023-05-10T02:12:16;12.50;99.90
46720;DHT22;32452;51.382;-0.002;2023-05-10T02:15:05;12.50;99.90
46720;DHT22;32452;51.382;-0.002;2023-05-10T02:17:51;12.50;99.90
46720;DHT22;32452;51.382;-0.002;2023-05-10T02:20:38;12.50;99.90
46720;DHT22;32452;51.382;-0.002;2023-05-10T02:23:25;12.40;99.90
46720;DHT22;32452;51.382;-0.002;2023-05-10T02:26:12;12.40;99.90
46720;DHT22;32452;51.382;-0.002;2023-05-10T02:29:02;12.40;99.90
46720;DHT22;32452;51.382;-0.002;2023-05-10T02:31:51;12.40;99.90
46720;DHT22;32452;51.382;-0.002;2023-05-10T02:34:38;12.40;99.90
46720;DHT22;32452;51.382;-0.002;2023-05-10T02:37:25;12.40;99.90
46720;DHT22;32452;51.382;-0.002;2023-05-10T02:40:13;12.30;99.90
46720;DHT22;32452;51.382;-0.002;2023-05-10T02:43:01;12.30;99.90
46720;DHT22;32452;51.382;-0.002;2023-05-10T02:45:48;12.30;99.90
46720;DHT22;32452;51.382;-0.002;2023-05-10T02:48:34;12.20;99.90
46720;DHT22;32452;51.382;-0.002;2023-05-10T02:51:20;12.20;99.90
46720;DHT22;32452;51.382;-0.002;2023-05-10T02:54:12;12.20;99.90
46720;DHT22;32452;51.382;-0.002;2023-05-10T02:57:03;12.20;99.90
46720;DHT22;32452;51.382;-0.002;2023-05-10T02:59:49;12.20;99.90
46720;DHT22;32452;51.382;-0.002;2023-05-10T03:02:35;12.10;99.90
46720;DHT22;32452;51.382;-0.002;2023-05-10T03:05:21;12.10;99.90
46720;DHT22;32452;51.382;-0.002;2023-05-10T03:08:07;12.10;99.90
46720;DHT22;32452;51.382;-0.002;2023-05-10T03:20:33;12.10;99.90
46720;DHT22;32452;51.382;-0.002;2023-05-10T03:23:35;12.10;99.90
46720;DHT22;32452;51.382;-0.002;2023-05-10T03:26:26;12.10;99.90
46720;DHT22;32452;51.382;-0.002;2023-05-10T03:29:13;12.10;99.90
46720;DHT22;32452;51.382;-0.002;2023-05-10T03:31:59;12.10;99.90
46720;DHT22;32452;51.382;-0.002;2023-05-10T03:34:45;12.10;99.90
46720;DHT22;32452;51.382;-0.002;2023-05-10T03:37:30;12.00;99.90
46720;DHT22;32452;51.382;-0.002;2023-05-10T03:40:16;12.00;99.90
46720;DHT22;32452;51.382;-0.002;2023-05-10T03:43:02;12.00;99.90
46720;DHT22;32452;51.382;-0.002;2023-05-10T03:45:48;12.00;99.90
46720;DHT22;32452;51.382;-0.002;2023-05-10T03:48:33;12.00;99.90
46720;DHT22;32452;51.382;-0.002;2023-05-10T03:51:19;12.00;99.90
46720;DHT22;32452;51.382;-0.002;2023-05-10T03:54:04;12.00;99.90
46720;DHT22;32452;51.382;-0.002;2023-05-10T03:56:50;12.00;99.90
46720;DHT22;32452;51.382;-0.002;2023-05-10T03:59:35;12.00;99.90
46720;DHT22;32452;51.382;-0.002;2023-05-10T04:02:21;11.90;99.90
46720;DHT22;32452;51.382;-0.002;2023-05-10T04:05:07;11.90;99.90
46720;DHT22;32452;51.382;-0.002;2023-05-10T04:07:52;11.90;99.90
46720;DHT22;32452;51.382;-0.002;2023-05-10T04:10:38;11.90;99.90
46720;DHT22;32452;51.382;-0.002;2023-05-10T04:13:23;11.90;99.90
46720;DHT22;32452;51.382;-0.002;2023-05-10T04:16:09;11.90;99.90
46720;DHT22;32452;51.382;-0.002;2023-05-10T04:18:54;11.80;99.90
46720;DHT22;32452;51.382;-0.002;2023-05-10T04:21:40;11.90;99.90
46720;DHT22;32452;51.382;-0.002;2023-05-10T04:24:25;11.80;99.90
46720;DHT22;32452;51.382;-0.002;2023-05-10T04:28:17;11.80;99.90
46720;DHT22;32452;51.382;-0.002;2023-05-10T04:31:04;11.70;99.90
46720;DHT22;32452;51.382;-0.002;2023-05-10T04:33:50;11.80;99.90
46720;DHT22;32452;51.382;-0.002;2023-05-10T04:36:35;11.70;99.90
46720;DHT22;32452;51.382;-0.002;2023-05-10T04:39:21;11.70;99.90
46720;DHT22;32452;51.382;-0.002;2023-05-10T04:42:06;11.70;99.90
46720;DHT22;32452;51.382;-0.002;2023-05-10T04:44:52;11.70;99.90
46720;DHT22;32452;51.382;-0.002;2023-05-10T04:47:37;11.60;99.90
46720;DHT22;32452;51.382;-0.002;2023-05-10T04:50:23;11.60;99.90
46720;DHT22;32452;51.382;-0.002;2023-05-10T04:53:08;11.60;99.90
46720;DHT22;32452;51.382;-0.002;2023-05-10T04:55:54;11.60;99.90
46720;DHT22;32452;51.382;-0.002;2023-05-10T04:58:39;11.50;99.90
46720;DHT22;32452;51.382;-0.002;2023-05-10T05:01:25;11.50;99.90
46720;DHT22;32452;51.382;-0.002;2023-05-10T05:04:11;11.50;99.90
46720;DHT22;32452;51.382;-0.002;2023-05-10T05:06:56;11.50;99.90
46720;DHT22;32452;51.382;-0.002;2023-05-10T05:09:42;11.50;99.90
46720;DHT22;32452;51.382;-0.002;2023-05-10T05:12:28;11.50;99.90
46720;DHT22;32452;51.382;-0.002;2023-05-10T05:15:13;11.50;99.90
46720;DHT22;32452;51.382;-0.002;2023-05-10T05:18:00;11.50;99.90
46720;DHT22;32452;51.382;-0.002;2023-05-10T05:20:46;11.50;99.90
46720;DHT22;32452;51.382;-0.002;2023-05-10T05:23:32;11.50;99.90
46720;DHT22;32452;51.382;-0.002;2023-05-10T05:26:17;11.50;99.90
46720;DHT22;32452;51.382;-0.002;2023-05-10T05:29:03;11.50;99.90
46720;DHT22;32452;51.382;-0.002;2023-05-10T05:31:48;11.60;99.90
46720;DHT22;32452;51.382;-0.002;2023-05-10T05:34:34;11.70;99.90
46720;DHT22;32452;51.382;-0.002;2023-05-10T05:37:20;11.80;99.90
46720;DHT22;32452;51.382;-0.002;2023-05-10T05:40:07;11.80;99.90
46720;DHT22;32452;51.382;-0.002;2023-05-10T05:42:52;11.90;99.90
46720;DHT22;32452;51.382;-0.002;2023-05-10T05:45:38;11.90;99.90
46720;DHT22;32452;51.382;-0.002;2023-05-10T05:48:23;12.00;99.90
46720;DHT22;32452;51.382;-0.002;2023-05-10T05:51:09;12.00;99.90
46720;DHT22;32452;51.382;-0.002;2023-05-10T05:53:55;12.00;99.90
46720;DHT22;32452;51.382;-0.002;2023-05-10T05:56:40;12.00;99.90
46720;DHT22;32452;51.382;-0.002;2023-05-10T05:59:27;12.10;99.90
46720;DHT22;32452;51.382;-0.002;2023-05-10T06:02:12;12.10;99.90
46720;DHT22;32452;51.382;-0.002;2023-05-10T06:04:58;12.20;99.90
46720;DHT22;32452;51.382;-0.002;2023-05-10T06:07:44;12.20;99.90
46720;DHT22;32452;51.382;-0.002;2023-05-10T06:10:29;12.20;99.90
46720;DHT22;32452;51.382;-0.002;2023-05-10T06:13:15;12.30;99.90
46720;DHT22;32452;51.382;-0.002;2023-05-10T06:16:02;12.40;99.90
46720;DHT22;32452;51.382;-0.002;2023-05-10T06:18:48;12.50;99.90
46720;DHT22;32452;51.382;-0.002;2023-05-10T06:21:33;12.50;99.90
46720;DHT22;32452;51.382;-0.002;2023-05-10T06:24:19;12.50;99.90
46720;DHT22;32452;51.382;-0.002;2023-05-10T06:27:05;12.50;99.90
46720;DHT22;32452;51.382;-0.002;2023-05-10T06:29:51;12.50;99.90
46720;DHT22;32452;51.382;-0.002;2023-05-10T06:32:53;12.60;99.90
46720;DHT22;32452;51.382;-0.002;2023-05-10T06:35:39;12.70;99.90
46720;DHT22;32452;51.382;-0.002;2023-05-10T06:38:25;13.00;99.90
46720;DHT22;32452;51.382;-0.002;2023-05-10T06:41:10;13.20;99.90
46720;DHT22;32452;51.382;-0.002;2023-05-10T06:43:56;13.30;99.90
46720;DHT22;32452;51.382;-0.002;2023-05-10T06:46:42;13.50;99.90
46720;DHT22;32452;51.382;-0.002;2023-05-10T06:49:28;13.60;99.90
46720;DHT22;32452;51.382;-0.002;2023-05-10T06:52:13;13.60;99.90
46720;DHT22;32452;51.382;-0.002;2023-05-10T06:54:59;13.60;99.90
46720;DHT22;32452;51.382;-0.002;2023-05-10T06:57:45;13.60;99.90
46720;DHT22;32452;51.382;-0.002;2023-05-10T07:00:31;13.70;99.90
46720;DHT22;32452;51.382;-0.002;2023-05-10T07:03:16;13.90;99.90
46720;DHT22;32452;51.382;-0.002;2023-05-10T07:06:03;14.50;99.90
46720;DHT22;32452;51.382;-0.002;2023-05-10T07:08:49;15.30;99.90
46720;DHT22;32452;51.382;-0.002;2023-05-10T07:11:35;16.10;99.90
46720;DHT22;32452;51.382;-0.002;2023-05-10T07:14:20;16.50;99.90
46720;DHT22;32452;51.382;-0.002;2023-05-10T07:17:06;16.90;99.90
46720;DHT22;32452;51.382;-0.002;2023-05-10T07:19:51;17.50;99.90
46720;DHT22;32452;51.382;-0.002;2023-05-10T07:22:37;18.00;99.90
46720;DHT22;32452;51.382;-0.002;2023-05-10T07:25:22;18.60;98.50
46720;DHT22;32452;51.382;-0.002;2023-05-10T07:28:08;19.40;96.00
46720;DHT22;32452;51.382;-0.002;2023-05-10T07:30:53;19.90;92.90
46720;DHT22;32452;51.382;-0.002;2023-05-10T07:33:39;20.20;90.80
46720;DHT22;32452;51.382;-0.002;2023-05-10T07:36:25;20.40;89.80
46720;DHT22;32452;51.382;-0.002;2023-05-10T07:39:11;20.70;88.40
46720;DHT22;32452;51.382;-0.002;2023-05-10T07:42:08;21.00;85.00
46720;DHT22;32452;51.382;-0.002;2023-05-10T07:44:54;21.20;82.70
46720;DHT22;32452;51.382;-0.002;2023-05-10T07:47:40;21.40;80.50
46720;DHT22;32452;51.382;-0.002;2023-05-10T07:50:26;21.70;78.80
46720;DHT22;32452;51.382;-0.002;2023-05-10T07:53:12;22.00;77.00
46720;DHT22;32452;51.382;-0.002;2023-05-10T07:55:58;22.00;75.30
46720;DHT22;32452;51.382;-0.002;2023-05-10T07:58:43;21.70;75.00
46720;DHT22;32452;51.382;-0.002;2023-05-10T08:01:33;21.50;75.00
46720;DHT22;32452;51.382;-0.002;2023-05-10T08:04:19;21.50;74.60
46720;DHT22;32452;51.382;-0.002;2023-05-10T08:07:05;21.60;74.70
46720;DHT22;32452;51.382;-0.002;2023-05-10T08:09:50;21.80;73.50
46720;DHT22;32452;51.382;-0.002;2023-05-10T08:12:37;21.90;72.30
46720;DHT22;32452;51.382;-0.002;2023-05-10T08:15:23;22.10;71.00
46720;DHT22;32452;51.382;-0.002;2023-05-10T08:18:09;22.30;69.80
46720;DHT22;32452;51.382;-0.002;2023-05-10T08:20:54;22.50;69.10
46720;DHT22;32452;51.382;-0.002;2023-05-10T08:23:40;22.60;68.30
46720;DHT22;32452;51.382;-0.002;2023-05-10T08:26:25;22.60;67.20
46720;DHT22;32452;51.382;-0.002;2023-05-10T08:29:11;22.80;67.20
46720;DHT22;32452;51.382;-0.002;2023-05-10T08:31:57;22.80;65.80
46720;DHT22;32452;51.382;-0.002;2023-05-10T08:34:42;22.80;64.80
46720;DHT22;32452;51.382;-0.002;2023-05-10T08:37:30;23.10;65.10
46720;DHT22;32452;51.382;-0.002;2023-05-10T08:40:15;23.40;64.80
46720;DHT22;32452;51.382;-0.002;2023-05-10T08:43:06;23.40;64.10
46720;DHT22;32452;51.382;-0.002;2023-05-10T08:45:53;23.10;63.60
46720;DHT22;32452;51.382;-0.002;2023-05-10T08:48:39;22.40;64.30
46720;DHT22;32452;51.382;-0.002;2023-05-10T08:51:26;22.20;64.10
46720;DHT22;32452;51.382;-0.002;2023-05-10T08:54:12;22.20;63.90
46720;DHT22;32452;51.382;-0.002;2023-05-10T08:56:58;22.30;64.00
46720;DHT22;32452;51.382;-0.002;2023-05-10T08:59:43;22.30;63.90
46720;DHT22;32452;51.382;-0.002;2023-05-10T09:02:29;22.40;63.40
46720;DHT22;32452;51.382;-0.002;2023-05-10T09:05:15;22.60;62.60
46720;DHT22;32452;51.382;-0.002;2023-05-10T09:08:01;22.70;62.90
46720;DHT22;32452;51.382;-0.002;2023-05-10T09:10:49;22.80;62.80
46720;DHT22;32452;51.382;-0.002;2023-05-10T09:13:35;22.70;61.50
46720;DHT22;32452;51.382;-0.002;2023-05-10T09:16:21;22.80;61.10
46720;DHT22;32452;51.382;-0.002;2023-05-10T09:19:08;23.00;60.80
46720;DHT22;32452;51.382;-0.002;2023-05-10T09:21:54;22.90;61.10
46720;DHT22;32452;51.382;-0.002;2023-05-10T09:24:42;23.10;61.40
46720;DHT22;32452;51.382;-0.002;2023-05-10T09:27:30;23.40;60.40
46720;DHT22;32452;51.382;-0.002;2023-05-10T09:30:30;23.60;59.60
46720;DHT22;32452;51.382;-0.002;2023-05-10T09:33:18;23.70;58.60
46720;DHT22;32452;51.382;-0.002;2023-05-10T09:36:07;23.80;58.40
46720;DHT22;32452;51.382;-0.002;2023-05-10T09:38:54;23.80;58.20
46720;DHT22;32452;51.382;-0.002;2023-05-10T09:41:42;23.50;58.00
46720;DHT22;32452;51.382;-0.002;2023-05-10T09:44:28;23.00;58.20
46720;DHT22;32452;51.382;-0.002;2023-05-10T09:47:17;23.00;58.70
46720;DHT22;32452;51.382;-0.002;2023-05-10T09:50:04;23.00;58.30
46720;DHT22;32452;51.382;-0.002;2023-05-10T09:53:01;23.20;58.10
46720;DHT22;32452;51.382;-0.002;2023-05-10T09:55:48;23.50;58.10
46720;DHT22;32452;51.382;-0.002;2023-05-10T09:58:36;23.70;58.50
46720;DHT22;32452;51.382;-0.002;2023-05-10T10:01:26;23.90;56.80
46720;DHT22;32452;51.382;-0.002;2023-05-10T10:04:12;24.10;56.50
46720;DHT22;32452;51.382;-0.002;2023-05-10T10:07:04;24.30;57.00
46720;DHT22;32452;51.382;-0.002;2023-05-10T10:09:50;24.50;55.90
46720;DHT22;32452;51.382;-0.002;2023-05-10T10:12:35;24.50;55.20
46720;DHT22;32452;51.382;-0.002;2023-05-10T10:15:25;24.80;55.00
46720;DHT22;32452;51.382;-0.002;2023-05-10T10:18:14;25.10;54.60
46720;DHT22;32452;51.382;-0.002;2023-05-10T10:21:01;25.40;54.00
46720;DHT22;32452;51.382;-0.002;2023-05-10T10:23:47;25.70;53.30
46720;DHT22;32452;51.382;-0.002;2023-05-10T10:26:35;25.60;52.30
46720;DHT22;32452;51.382;-0.002;2023-05-10T10:29:49;25.30;51.50
46720;DHT22;32452;51.382;-0.002;2023-05-10T10:33:06;25.00;51.20
46720;DHT22;32452;51.382;-0.002;2023-05-10T10:36:12;24.70;52.20
46720;DHT22;32452;51.382;-0.002;2023-05-10T10:38:59;25.00;52.20
46720;DHT22;32452;51.382;-0.002;2023-05-10T10:41:54;25.20;51.50
46720;DHT22;32452;51.382;-0.002;2023-05-10T10:44:39;24.80;51.10
46720;DHT22;32452;51.382;-0.002;2023-05-10T10:47:29;24.70;52.40
46720;DHT22;32452;51.382;-0.002;2023-05-10T10:50:18;24.80;51.30
46720;DHT22;32452;51.382;-0.002;2023-05-10T10:53:10;24.50;50.80
46720;DHT22;32452;51.382;-0.002;2023-05-10T10:56:06;24.60;51.20
46720;DHT22;32452;51.382;-0.002;2023-05-10T10:58:52;24.80;50.80
46720;DHT22;32452;51.382;-0.002;2023-05-10T11:01:41;25.10;50.20
46720;DHT22;32452;51.382;-0.002;2023-05-10T11:04:41;25.40;49.90
46720;DHT22;32452;51.382;-0.002;2023-05-10T11:07:28;25.70;48.80
46720;DHT22;32452;51.382;-0.002;2023-05-10T11:10:19;25.90;48.60
46720;DHT22;32452;51.382;-0.002;2023-05-10T11:13:06;25.80;48.10
46720;DHT22;32452;51.382;-0.002;2023-05-10T11:15:52;25.60;48.30
46720;DHT22;32452;51.382;-0.002;2023-05-10T11:18:38;25.40;47.90
46720;DHT22;32452;51.382;-0.002;2023-05-10T11:21:24;25.00;47.90
46720;DHT22;32452;51.382;-0.002;2023-05-10T11:24:15;24.90;48.30
46720;DHT22;32452;51.382;-0.002;2023-05-10T11:27:01;25.20;48.40
46720;DHT22;32452;51.382;-0.002;2023-05-10T11:29:46;25.30;48.90
46720;DHT22;32452;51.382;-0.002;2023-05-10T11:32:39;25.30;48.20
46720;DHT22;32452;51.382;-0.002;2023-05-10T11:35:27;25.20;48.60
46720;DHT22;32452;51.382;-0.002;2023-05-10T11:38:13;25.20;47.60
46720;DHT22;32452;51.382;-0.002;2023-05-10T11:40:59;25.30;47.70
46720;DHT22;32452;51.382;-0.002;2023-05-10T11:43:50;25.10;46.90
46720;DHT22;32452;51.382;-0.002;2023-05-10T11:46:36;24.50;46.40
46720;DHT22;32452;51.382;-0.002;2023-05-10T11:49:23;24.10;47.80
46720;DHT22;32452;51.382;-0.002;2023-05-10T11:52:10;24.10;47.40
46720;DHT22;32452;51.382;-0.002;2023-05-10T11:54:58;24.00;46.90
46720;DHT22;32452;51.382;-0.002;2023-05-10T11:57:44;23.90;47.00
46720;DHT22;32452;51.382;-0.002;2023-05-10T12:00:31;23.80;47.00
46720;DHT22;32452;51.382;-0.002;2023-05-10T12:03:17;23.70;47.30
46720;DHT22;32452;51.382;-0.002;2023-05-10T12:06:03;23.50;47.00
46720;DHT22;32452;51.382;-0.002;2023-05-10T12:08:49;23.50;47.20
46720;DHT22;32452;51.382;-0.002;2023-05-10T12:11:40;23.60;46.70
46720;DHT22;32452;51.382;-0.002;2023-05-10T12:14:28;23.40;46.70
46720;DHT22;32452;51.382;-0.002;2023-05-10T12:17:18;23.20;47.30
46720;DHT22;32452;51.382;-0.002;2023-05-10T12:23:02;22.80;48.00
46720;DHT22;32452;51.382;-0.002;2023-05-10T12:25:48;22.50;49.00
46720;DHT22;32452;51.382;-0.002;2023-05-10T12:28:34;22.30;49.60
46720;DHT22;32452;51.382;-0.002;2023-05-10T12:31:20;22.10;50.00
46720;DHT22;32452;51.382;-0.002;2023-05-10T12:34:07;22.10;50.50
46720;DHT22;32452;51.382;-0.002;2023-05-10T12:36:54;22.10;50.60
46720;DHT22;32452;51.382;-0.002;2023-05-10T12:39:41;22.10;50.00
46720;DHT22;32452;51.382;-0.002;2023-05-10T12:42:26;22.00;49.70
46720;DHT22;32452;51.382;-0.002;2023-05-10T12:45:12;22.00;49.60
46720;DHT22;32452;51.382;-0.002;2023-05-10T12:47:57;21.90;49.90
46720;DHT22;32452;51.382;-0.002;2023-05-10T12:50:43;21.80;50.00
46720;DHT22;32452;51.382;-0.002;2023-05-10T12:53:28;21.70;50.80
46720;DHT22;32452;51.382;-0.002;2023-05-10T12:56:14;21.50;50.50
46720;DHT22;32452;51.382;-0.002;2023-05-10T12:59:00;21.30;50.80
46720;DHT22;32452;51.382;-0.002;2023-05-10T13:01:45;21.10;51.20
46720;DHT22;32452;51.382;-0.002;2023-05-10T13:04:31;21.00;51.70
46720;DHT22;32452;51.382;-0.002;2023-05-10T13:07:16;20.90;52.30
46720;DHT22;32452;51.382;-0.002;2023-05-10T13:10:02;20.80;52.60
46720;DHT22;32452;51.382;-0.002;2023-05-10T13:12:47;20.80;53.00
46720;DHT22;32452;51.382;-0.002;2023-05-10T13:15:33;20.80;53.10
46720;DHT22;32452;51.382;-0.002;2023-05-10T13:18:18;20.80;53.70
46720;DHT22;32452;51.382;-0.002;2023-05-10T13:21:04;20.80;54.00
46720;DHT22;32452;51.382;-0.002;2023-05-10T13:23:51;20.90;54.20
46720;DHT22;32452;51.382;-0.002;2023-05-10T13:26:36;21.00;54.10
46720;DHT22;32452;51.382;-0.002;2023-05-10T13:29:22;21.10;54.10
46720;DHT22;32452;51.382;-0.002;2023-05-10T13:32:08;21.10;53.90
46720;DHT22;32452;51.382;-0.002;2023-05-10T13:34:54;21.20;53.60
46720;DHT22;32452;51.382;-0.002;2023-05-10T13:37:39;21.20;52.90
46720;DHT22;32452;51.382;-0.002;2023-05-10T13:40:25;21.30;52.60
46720;DHT22;32452;51.382;-0.002;2023-05-10T13:43:10;21.30;52.40
46720;DHT22;32452;51.382;-0.002;2023-05-10T13:45:56;21.40;51.90
46720;DHT22;32452;51.382;-0.002;2023-05-10T13:48:41;21.30;51.30
46720;DHT22;32452;51.382;-0.002;2023-05-10T13:51:26;21.20;51.70
46720;DHT22;32452;51.382;-0.002;2023-05-10T13:54:12;21.00;53.00
46720;DHT22;32452;51.382;-0.002;2023-05-10T13:56:58;20.70;55.20
46720;DHT22;32452;51.382;-0.002;2023-05-10T13:59:44;20.50;57.80
46720;DHT22;32452;51.382;-0.002;2023-05-10T14:02:30;20.20;60.70
46720;DHT22;32452;51.382;-0.002;2023-05-10T14:05:15;19.90;62.80
46720;DHT22;32452;51.382;-0.002;2023-05-10T14:08:04;19.60;64.30
46720;DHT22;32452;51.382;-0.002;2023-05-10T14:10:50;19.40;65.60
46720;DHT22;32452;51.382;-0.002;2023-05-10T14:13:37;19.20;66.50
46720;DHT22;32452;51.382;-0.002;2023-05-10T14:16:23;19.10;67.10
46720;DHT22;32452;51.382;-0.002;2023-05-10T14:19:08;19.10;67.70
46720;DHT22;32452;51.382;-0.002;2023-05-10T14:21:54;19.00;69.00
46720;DHT22;32452;51.382;-0.002;2023-05-10T14:24:39;19.00;70.00
46720;DHT22;32452;51.382;-0.002;2023-05-10T14:27:25;19.00;70.60
46720;DHT22;32452;51.382;-0.002;2023-05-10T14:30:12;19.20;71.60
46720;DHT22;32452;51.382;-0.002;2023-05-10T14:33:02;19.30;73.00
46720;DHT22;32452;51.382;-0.002;2023-05-10T14:35:48;19.60;74.30
46720;DHT22;32452;51.382;-0.002;2023-05-10T14:38:33;19.80;74.00
46720;DHT22;32452;51.382;-0.002;2023-05-10T14:41:19;20.00;73.80
46720;DHT22;32452;51.382;-0.002;2023-05-10T14:44:04;20.20;73.70
46720;DHT22;32452;51.382;-0.002;2023-05-10T14:46:50;20.30;70.80
46720;DHT22;32452;51.382;-0.002;2023-05-10T14:49:37;20.40;70.00
46720;DHT22;32452;51.382;-0.002;2023-05-10T14:52:22;20.50;69.10
46720;DHT22;32452;51.382;-0.002;2023-05-10T14:55:08;20.50;67.70
46720;DHT22;32452;51.382;-0.002;2023-05-10T14:57:53;20.40;66.30
46720;DHT22;32452;51.382;-0.002;2023-05-10T15:00:40;20.30;65.50
46720;DHT22;32452;51.382;-0.002;2023-05-10T15:03:26;20.20;65.40
46720;DHT22;32452;51.382;-0.002;2023-05-10T15:06:14;20.10;64.70
46720;DHT22;32452;51.382;-0.002;2023-05-10T15:09:01;20.00;63.60
46720;DHT22;32452;51.382;-0.002;2023-05-10T15:11:47;20.00;63.00
46720;DHT22;32452;51.382;-0.002;2023-05-10T15:14:32;19.90;62.60
46720;DHT22;32452;51.382;-0.002;2023-05-10T15:17:18;19.90;62.00
46720;DHT22;32452;51.382;-0.002;2023-05-10T15:20:04;19.70;61.60
46720;DHT22;32452;51.382;-0.002;2023-05-10T15:22:49;19.60;61.50
46720;DHT22;32452;51.382;-0.002;2023-05-10T15:25:35;19.50;61.30
46720;DHT22;32452;51.382;-0.002;2023-05-10T15:28:22;19.40;61.80
46720;DHT22;32452;51.382;-0.002;2023-05-10T15:31:07;19.30;63.00
46720;DHT22;32452;51.382;-0.002;2023-05-10T15:33:57;19.30;64.10
46720;DHT22;32452;51.382;-0.002;2023-05-10T15:36:45;19.40;66.00
46720;DHT22;32452;51.382;-0.002;2023-05-10T15:39:32;19.50;66.80
46720;DHT22;32452;51.382;-0.002;2023-05-10T15:42:18;19.50;67.30
46720;DHT22;32452;51.382;-0.002;2023-05-10T15:45:04;19.50;67.10
46720;DHT22;32452;51.382;-0.002;2023-05-10T15:47:49;19.60;66.90
46720;DHT22;32452;51.382;-0.002;2023-05-10T15:50:35;19.60;66.90
46720;DHT22;32452;51.382;-0.002;2023-05-10T15:53:20;19.70;66.80
46720;DHT22;32452;51.382;-0.002;2023-05-10T15:56:06;19.60;66.60
46720;DHT22;32452;51.382;-0.002;2023-05-10T15:58:52;19.50;66.60
46720;DHT22;32452;51.382;-0.002;2023-05-10T16:01:37;19.30;66.10
46720;DHT22;32452;51.382;-0.002;2023-05-10T16:04:23;19.20;65.60
46720;DHT22;32452;51.382;-0.002;2023-05-10T16:07:08;19.10;65.70
46720;DHT22;32452;51.382;-0.002;2023-05-10T16:09:54;19.00;65.60
46720;DHT22;32452;51.382;-0.002;2023-05-10T16:12:40;18.90;65.50
46720;DHT22;32452;51.382;-0.002;2023-05-10T16:15:25;18.80;65.40
46720;DHT22;32452;51.382;-0.002;2023-05-10T16:18:11;18.70;65.50
46720;DHT22;32452;51.382;-0.002;2023-05-10T16:20:58;18.60;65.50
46720;DHT22;32452;51.382;-0.002;2023-05-10T16:23:44;18.50;65.70
46720;DHT22;32452;51.382;-0.002;2023-05-10T16:26:31;18.30;66.00
46720;DHT22;32452;51.382;-0.002;2023-05-10T16:29:16;18.10;66.90
46720;DHT22;32452;51.382;-0.002;2023-05-10T16:32:02;17.90;68.30
46720;DHT22;32452;51.382;-0.002;2023-05-10T16:34:47;17.70;69.80
46720;DHT22;32452;51.382;-0.002;2023-05-10T16:37:34;17.60;71.40
46720;DHT22;32452;51.382;-0.002;2023-05-10T16:40:20;17.50;73.60
46720;DHT22;32452;51.382;-0.002;2023-05-10T16:43:06;17.40;75.00
46720;DHT22;32452;51.382;-0.002;2023-05-10T16:45:52;17.30;76.10
46720;DHT22;32452;51.382;-0.002;2023-05-10T16:48:37;17.20;77.20
46720;DHT22;32452;51.382;-0.002;2023-05-10T16:51:23;17.10;77.90
46720;DHT22;32452;51.382;-0.002;2023-05-10T16:54:08;17.00;79.10
46720;DHT22;32452;51.382;-0.002;2023-05-10T16:56:54;17.00;80.30
46720;DHT22;32452;51.382;-0.002;2023-05-10T16:59:39;17.00;81.80
46720;DHT22;32452;51.382;-0.002;2023-05-10T17:02:25;16.90;83.00
46720;DHT22;32452;51.382;-0.002;2023-05-10T17:05:11;16.90;84.10
46720;DHT22;32452;51.382;-0.002;2023-05-10T17:07:56;16.80;85.00
46720;DHT22;32452;51.382;-0.002;2023-05-10T17:10:42;16.70;85.90
46720;DHT22;32452;51.382;-0.002;2023-05-10T17:13:27;16.70;87.80
46720;DHT22;32452;51.382;-0.002;2023-05-10T17:16:13;16.70;88.40
46720;DHT22;32452;51.382;-0.002;2023-05-10T17:18:59;16.60;89.70
46720;DHT22;32452;51.382;-0.002;2023-05-10T17:21:45;16.60;90.40
46720;DHT22;32452;51.382;-0.002;2023-05-10T17:24:30;16.50;91.00
46720;DHT22;32452;51.382;-0.002;2023-05-10T17:27:17;16.40;91.50
46720;DHT22;32452;51.382;-0.002;2023-05-10T17:30:03;16.40;91.90
46720;DHT22;32452;51.382;-0.002;2023-05-10T17:32:49;16.40;92.30
46720;DHT22;32452;51.382;-0.002;2023-05-10T17:35:35;16.30;92.80
46720;DHT22;32452;51.382;-0.002;2023-05-10T17:38:20;16.30;93.30
46720;DHT22;32452;51.382;-0.002;2023-05-10T17:41:06;16.20;93.50
46720;DHT22;32452;51.382;-0.002;2023-05-10T17:43:52;16.20;93.80